createdAt,value
2018-01-22T01:38:13.277Z,47.23
2018-01-22T01:38:13.781Z,47.23
2018-01-22T01:38:14.383Z,47.23
2018-01-22T01:38:15.013Z,47.23
2018-01-22T01:38:15.581Z,47.32
2018-01-22T01:38:16.182Z,47.23
2018-01-22T01:38:16.781Z,47.13
2018-01-22T01:38:17.383Z,47.13
2018-01-22T01:38:17.982Z,47.23
2018-01-22T01:38:18.615Z,47.23
2018-01-22T01:38:19.179Z,47.13
2018-01-22T01:38:19.777Z,47.23
2018-01-22T01:41:02.068Z,47.42
2018-01-22T01:41:02.665Z,47.42
2018-01-22T01:41:03.262Z,47.51
2018-01-22T01:41:03.863Z,47.42
2018-01-22T01:41:04.464Z,47.42
2018-01-22T01:41:05.061Z,47.42
2018-01-22T01:41:05.658Z,47.32
2018-01-22T01:41:06.272Z,47.42
2018-01-22T01:41:06.859Z,47.42
2018-01-22T01:41:07.457Z,47.42
2018-01-22T01:41:08.090Z,47.42
2018-01-22T01:41:08.656Z,47.23
2018-01-22T01:42:07.681Z,47.51
2018-01-22T01:42:08.273Z,47.42
2018-01-22T01:42:08.874Z,47.42
2018-01-22T01:42:09.474Z,47.51
2018-01-22T01:42:10.109Z,47.42
2018-01-22T01:42:10.713Z,47.51
2018-01-22T01:42:11.270Z,47.42
2018-01-22T01:42:11.879Z,47.42
2018-01-22T01:42:12.470Z,47.42
2018-01-22T01:42:13.069Z,47.42
2018-01-22T01:42:13.671Z,47.42
2018-01-22T01:42:14.294Z,47.32
2018-01-22T01:42:14.947Z,47.23
2018-01-22T01:42:15.469Z,47.32
2018-01-22T01:42:16.072Z,47.51
2018-01-22T01:42:16.674Z,47.51
2018-01-22T01:42:17.270Z,47.23
2018-01-22T01:43:11.272Z,47.51
2018-01-22T01:43:11.867Z,47.51
2018-01-22T01:43:12.513Z,47.61
2018-01-22T01:43:13.066Z,47.32
2018-01-22T01:43:13.667Z,47.61
2018-01-22T01:43:14.280Z,47.70
2018-01-22T01:43:14.894Z,47.61
2018-01-22T01:43:15.465Z,47.80
2018-01-22T01:45:01.992Z,47.70
2018-01-22T01:45:02.562Z,47.70
2018-01-22T01:45:03.162Z,47.42
2018-01-22T01:45:58.186Z,47.61
2018-01-22T01:45:58.779Z,47.80
2018-01-22T01:45:59.378Z,47.80
2018-01-22T01:45:59.979Z,47.80
2018-01-22T01:46:00.579Z,47.61
2018-01-22T01:46:01.183Z,47.70
2018-01-22T01:46:55.228Z,47.80
2018-01-22T01:46:55.842Z,47.70
2018-01-22T01:46:56.504Z,47.70
2018-01-22T01:46:57.020Z,47.80
2018-01-22T01:46:57.635Z,47.61
2018-01-22T01:46:58.216Z,47.51
2018-01-22T01:46:58.816Z,47.70
2018-01-22T01:46:59.459Z,47.51
2018-01-22T01:48:00.450Z,48.36
2018-01-22T01:48:01.048Z,48.27
2018-01-22T01:48:01.648Z,48.08
2018-01-22T01:48:02.247Z,48.18
2018-01-22T01:48:02.848Z,48.27
2018-01-22T01:48:03.456Z,48.27
2018-01-22T01:48:04.065Z,48.18
2018-01-22T01:48:04.655Z,48.27
2018-01-22T01:48:05.243Z,48.18
2018-01-22T01:48:05.846Z,48.27
2018-01-22T01:48:06.445Z,48.18
2018-01-22T01:48:07.049Z,48.18
2018-01-22T01:49:03.625Z,48.27
2018-01-22T01:49:04.128Z,48.27
2018-01-22T01:49:04.732Z,48.18
2018-01-22T01:49:58.246Z,48.55
2018-01-22T01:49:58.810Z,48.55
2018-01-22T01:49:59.410Z,48.65
2018-01-22T01:50:00.018Z,48.46
2018-01-22T01:50:00.610Z,48.65
2018-01-22T01:50:01.213Z,48.55
2018-01-22T01:50:01.808Z,48.55
2018-01-22T01:50:02.415Z,48.55
2018-01-22T01:50:56.887Z,48.36
2018-01-22T01:50:57.486Z,48.65
2018-01-22T01:50:58.081Z,48.18
2018-01-22T01:50:58.681Z,48.36
2018-01-22T01:50:59.304Z,48.36
2018-01-22T01:50:59.880Z,48.27
2018-01-22T01:51:00.481Z,48.18
2018-01-22T01:51:01.086Z,48.18
2018-01-22T01:51:56.075Z,48.93
2018-01-22T01:51:56.673Z,48.93
2018-01-22T01:51:57.272Z,49.03
2018-01-22T01:51:57.876Z,48.84
2018-01-22T01:51:58.471Z,49.03
2018-01-22T01:51:59.070Z,48.93
2018-01-22T01:53:00.589Z,49.22
2018-01-22T01:53:01.185Z,49.12
2018-01-22T01:53:01.785Z,49.03
2018-01-22T01:53:02.384Z,49.31
2018-01-22T01:53:02.984Z,49.03
2018-01-22T01:53:03.588Z,49.22
2018-01-22T01:53:04.215Z,49.41
2018-01-22T01:53:04.802Z,49.41
2018-01-22T01:53:05.382Z,49.31
2018-01-22T01:53:05.987Z,49.12
2018-01-22T01:53:06.581Z,49.22
2018-01-22T01:53:07.182Z,49.22
2018-01-22T01:55:19.502Z,51.01
2018-01-22T01:55:20.068Z,51.11
2018-01-22T01:55:20.681Z,50.82
2018-01-22T01:55:21.267Z,51.01
2018-01-22T01:55:21.865Z,51.01
2018-01-22T01:55:22.475Z,51.01
2018-01-22T01:55:23.066Z,51.01
2018-01-22T01:55:23.666Z,51.01
2018-01-22T01:55:24.266Z,51.01
2018-01-22T01:55:24.866Z,50.92
2018-01-22T01:55:25.466Z,51.01
2018-01-22T01:55:26.064Z,50.92
2018-01-22T01:56:20.069Z,51.49
2018-01-22T01:56:20.665Z,51.49
2018-01-22T01:56:21.263Z,51.49
2018-01-22T01:56:21.863Z,51.58
2018-01-22T01:56:22.479Z,51.39
2018-01-22T01:56:23.064Z,51.58
2018-01-22T01:56:23.662Z,51.39
2018-01-22T01:56:24.262Z,51.68
2018-01-22T01:57:45.367Z,52.72
2018-01-22T01:57:45.963Z,52.34
2018-01-22T01:57:46.562Z,52.62
2018-01-22T01:57:47.268Z,52.53
2018-01-22T01:57:47.761Z,52.53
2018-01-22T01:57:48.360Z,52.62
2018-01-22T01:57:48.963Z,52.72
2018-01-22T01:57:49.561Z,52.94
2018-01-22T01:57:50.159Z,52.81
2018-01-22T01:57:50.767Z,52.65
2018-01-22T01:57:52.290Z,52.44
2018-01-22T01:58:49.269Z,54.14
2018-01-22T01:58:49.862Z,54.07
2018-01-22T01:58:50.461Z,54.04
2018-01-22T01:59:55.020Z,54.52
2018-01-22T01:59:55.602Z,54.74
2018-01-22T01:59:56.203Z,54.64
2018-01-22T01:59:56.800Z,54.55
2018-01-22T01:59:57.403Z,54.55
2018-01-22T01:59:58.006Z,54.64
2018-01-22T02:01:17.576Z,56.79
2018-01-22T02:01:18.140Z,56.79
2018-01-22T02:01:18.738Z,57.20
2018-01-22T02:01:19.342Z,57.29
2018-01-22T02:01:19.945Z,57.39
2018-01-22T02:01:21.537Z,57.20
2018-01-22T02:01:22.082Z,57.76
2018-01-22T02:01:22.644Z,57.86
2018-01-22T02:01:23.256Z,57.57
2018-01-22T02:01:23.834Z,57.57
2018-01-22T02:01:24.624Z,57.86
2018-01-22T02:01:25.034Z,57.67
2018-01-22T02:01:25.679Z,57.67
2018-01-22T02:01:26.253Z,57.57
2018-01-22T02:01:26.835Z,57.57
2018-01-22T02:02:20.314Z,58.68
2018-01-22T02:02:20.933Z,58.71
2018-01-22T02:02:21.508Z,59.09
2018-01-22T02:02:22.108Z,59.00
2018-01-22T02:02:22.707Z,59.00
2018-01-22T02:02:23.311Z,59.00
2018-01-22T02:02:23.930Z,58.81
2018-01-22T02:02:24.570Z,58.81
2018-01-22T02:03:58.720Z,60.13
2018-01-22T02:03:59.318Z,60.13
2018-01-22T02:03:59.914Z,60.03
2018-01-22T02:04:00.514Z,59.75
2018-01-22T02:04:01.114Z,59.84
2018-01-22T02:04:01.714Z,59.84
2018-01-22T02:04:02.313Z,60.41
2018-01-22T02:04:02.919Z,59.75
2018-01-22T02:04:03.513Z,60.32
2018-01-22T02:04:04.113Z,59.84
2018-01-22T02:04:57.601Z,61.08
2018-01-22T02:04:58.197Z,60.80
2018-01-22T02:04:58.796Z,61.18
2018-01-22T02:04:59.396Z,60.89
2018-01-22T02:04:59.995Z,61.08
2018-01-22T02:05:00.605Z,60.99
2018-01-22T02:05:01.196Z,60.99
2018-01-22T02:05:01.797Z,60.89
2018-01-22T02:05:55.266Z,62.50
2018-01-22T02:05:55.848Z,62.50
2018-01-22T02:05:56.498Z,62.50
2018-01-22T02:05:57.046Z,62.40
2018-01-22T02:05:57.646Z,62.40
2018-01-22T02:05:58.254Z,62.12
2018-01-22T02:05:58.846Z,62.12
2018-01-22T02:05:59.448Z,62.21
2018-01-22T02:06:54.463Z,63.54
2018-01-22T02:06:55.035Z,63.73
2018-01-22T02:06:55.635Z,63.64
2018-01-22T02:06:56.235Z,63.45
2018-01-22T02:06:56.836Z,63.35
2018-01-22T02:06:57.433Z,63.45
2018-01-22T02:08:24.982Z,64.11
2018-01-22T02:08:25.558Z,64.11
2018-01-22T02:08:26.160Z,64.11
2018-01-22T02:08:26.758Z,64.30
2018-01-22T02:09:20.770Z,64.68
2018-01-22T02:09:21.414Z,64.96
2018-01-22T02:09:21.965Z,65.25
2018-01-22T02:09:22.566Z,65.25
2018-01-22T02:09:23.166Z,65.15
2018-01-22T02:09:23.766Z,65.15
2018-01-22T02:09:24.364Z,64.77
2018-01-22T02:11:08.907Z,67.99
2018-01-22T02:11:09.503Z,67.99
2018-01-22T02:11:10.102Z,68.18
2018-01-22T02:11:10.701Z,67.99
2018-01-22T02:11:11.300Z,68.08
2018-01-22T02:11:11.904Z,68.18
2018-01-22T02:11:12.529Z,67.61
2018-01-22T02:11:13.109Z,67.71
2018-01-22T02:12:11.607Z,68.84
2018-01-22T02:12:12.179Z,69.41
2018-01-22T02:12:12.770Z,69.22
2018-01-22T02:12:13.392Z,69.22
2018-01-22T02:12:13.972Z,69.51
2018-01-22T02:12:14.574Z,69.41
2018-01-22T02:12:15.172Z,69.22
2018-01-22T02:12:15.771Z,69.22
2018-01-22T02:12:16.555Z,69.32
2018-01-22T02:12:16.968Z,69.41
2018-01-22T02:12:17.584Z,69.13
2018-01-22T02:12:18.177Z,69.32
2018-01-22T02:12:18.797Z,69.60
2018-01-22T02:12:19.378Z,69.41
2018-01-22T02:12:19.971Z,69.22
2018-01-22T02:12:20.699Z,69.22
2018-01-22T02:54:07.071Z,74.05
2018-01-22T02:54:07.579Z,73.96
2018-01-22T02:54:08.177Z,74.05
2018-01-22T02:54:08.777Z,74.05
2018-01-22T02:54:09.386Z,74.05
2018-01-22T02:54:09.976Z,74.05
2018-01-22T02:55:05.010Z,73.11
2018-01-22T02:55:05.603Z,73.20
2018-01-22T02:55:06.203Z,72.92
2018-01-22T02:55:06.803Z,73.01
2018-01-22T02:55:07.403Z,72.82
2018-01-22T02:55:08.003Z,72.82
2018-01-22T02:55:08.604Z,73.11
2018-01-22T02:56:32.047Z,71.69
2018-01-22T02:56:32.644Z,71.59
2018-01-22T02:56:33.244Z,71.59
2018-01-22T02:56:33.843Z,71.97
2018-01-22T02:56:34.445Z,71.59
2018-01-22T02:56:35.049Z,71.59
2018-01-22T02:56:35.644Z,71.69
2018-01-22T02:56:36.244Z,71.59
2018-01-22T02:56:36.844Z,71.69
2018-01-22T02:56:37.442Z,71.59
2018-01-22T02:57:31.953Z,71.50
2018-01-22T02:57:32.548Z,70.93
2018-01-22T02:57:33.148Z,70.93
2018-01-22T02:57:33.749Z,71.21
2018-01-22T02:57:34.348Z,71.21
2018-01-22T02:57:34.949Z,70.83
2018-01-22T02:57:35.547Z,70.93
2018-01-22T02:58:38.410Z,70.98
2018-01-22T02:58:39.006Z,70.93
2018-01-22T02:58:39.606Z,70.89
2018-01-22T02:58:40.205Z,70.98
2018-01-22T02:58:40.806Z,70.79
2018-01-22T02:58:41.409Z,70.83
2018-01-22T02:58:42.007Z,70.89
2018-01-22T02:58:42.606Z,70.89
2018-01-22T02:58:43.203Z,70.89
2018-01-22T02:58:43.804Z,70.89
2018-01-22T02:58:44.407Z,71.08
2018-01-22T02:58:45.004Z,71.08
2018-01-22T03:01:09.009Z,69.66
2018-01-22T03:01:09.566Z,70.04
2018-01-22T03:01:10.170Z,69.89
2018-01-22T03:01:10.765Z,69.89
2018-01-22T03:01:11.368Z,69.98
2018-01-22T03:01:11.966Z,69.89
2018-01-22T03:01:12.565Z,69.98
2018-01-22T03:01:13.165Z,69.85
2018-01-22T03:01:13.765Z,69.89
2018-01-22T03:01:14.411Z,69.98
2018-01-22T03:01:14.962Z,69.98
2018-01-22T03:01:15.562Z,69.79
2018-01-22T03:02:18.061Z,69.70
2018-01-22T03:02:18.657Z,69.98
2018-01-22T03:02:19.258Z,69.89
2018-01-22T03:02:19.905Z,69.66
2018-01-22T03:02:20.456Z,69.79
2018-01-22T03:02:21.079Z,69.79
2018-01-22T03:02:21.656Z,69.70
2018-01-22T03:02:22.256Z,69.79
2018-01-22T03:02:22.857Z,69.79
2018-01-22T03:02:23.456Z,69.70
2018-01-22T03:02:24.053Z,69.79
2018-01-22T03:02:24.654Z,69.70
2018-01-22T03:03:19.096Z,70.17
2018-01-22T03:03:19.689Z,69.98
2018-01-22T03:03:20.298Z,70.07
2018-01-22T03:03:20.887Z,70.07
2018-01-22T03:03:21.488Z,70.64
2018-01-22T03:03:22.087Z,70.74
2018-01-22T03:03:22.689Z,70.17
2018-01-22T03:03:23.288Z,70.17
2018-01-22T03:04:16.779Z,70.26
2018-01-22T03:04:17.340Z,70.36
2018-01-22T03:04:17.941Z,70.26
2018-01-22T03:04:18.542Z,70.17
2018-01-22T03:04:19.139Z,70.36
2018-01-22T03:04:19.738Z,70.36
2018-01-22T03:04:20.446Z,70.36
2018-01-22T03:04:20.939Z,70.36
2018-01-22T03:05:15.419Z,70.64
2018-01-22T03:05:16.015Z,70.55
2018-01-22T03:05:16.641Z,70.74
2018-01-22T03:05:17.214Z,70.64
2018-01-22T03:05:17.812Z,70.64
2018-01-22T03:05:18.412Z,70.64
2018-01-22T03:05:19.014Z,70.74
2018-01-22T03:05:19.625Z,70.64
2018-01-22T03:06:18.090Z,71.21
2018-01-22T03:06:18.691Z,71.21
2018-01-22T03:06:19.902Z,71.21
2018-01-22T03:06:20.078Z,71.21
2018-01-22T03:06:20.506Z,71.21
2018-01-22T03:06:21.213Z,71.21
2018-01-22T03:06:21.908Z,71.21
2018-01-22T03:06:23.146Z,71.21
2018-01-22T03:06:23.670Z,71.21
2018-01-22T03:06:24.252Z,71.21
2018-01-22T03:06:24.853Z,71.31
2018-01-22T03:06:25.480Z,71.12
2018-01-22T03:06:26.053Z,71.12
2018-01-22T03:06:26.714Z,71.31
2018-01-22T03:06:27.254Z,71.21
2018-01-22T03:07:21.275Z,71.31
2018-01-22T03:07:21.865Z,71.69
2018-01-22T03:07:22.465Z,71.69
2018-01-22T03:07:23.108Z,71.50
2018-01-22T03:07:23.663Z,71.69
2018-01-22T03:07:24.263Z,71.78
2018-01-22T03:07:24.862Z,71.40
2018-01-22T03:09:27.187Z,72.44
2018-01-22T03:09:27.752Z,72.63
2018-01-22T03:09:28.350Z,72.25
2018-01-22T03:09:28.945Z,72.16
2018-01-22T03:09:29.545Z,72.25
2018-01-22T03:09:30.144Z,72.44
2018-01-22T03:09:30.744Z,72.44
2018-01-22T03:09:31.344Z,72.53
2018-01-22T03:09:31.943Z,72.44
2018-01-22T03:09:32.546Z,72.44
2018-01-22T03:09:33.146Z,72.63
2018-01-22T03:09:33.744Z,72.63
2018-01-22T03:10:29.285Z,72.44
2018-01-22T03:10:29.876Z,72.53
2018-01-22T03:10:30.473Z,72.82
2018-01-22T03:10:31.105Z,72.53
2018-01-22T03:10:31.677Z,72.53
2018-01-22T03:10:32.273Z,72.63
2018-01-22T03:11:27.648Z,73.20
2018-01-22T03:11:28.243Z,72.92
2018-01-22T03:11:28.844Z,72.92
2018-01-22T03:11:29.457Z,72.92
2018-01-22T03:11:30.078Z,72.92
2018-01-22T03:11:30.641Z,72.92
2018-01-22T03:11:31.242Z,72.92
2018-01-22T03:12:28.678Z,73.86
2018-01-22T03:12:29.274Z,73.68
2018-01-22T03:12:29.876Z,73.86
2018-01-22T03:13:29.402Z,75.19
2018-01-22T03:13:29.997Z,75.28
2018-01-22T03:13:30.597Z,75.38
2018-01-22T03:13:31.199Z,75.00
2018-01-22T03:13:31.795Z,75.57
2018-01-22T03:13:32.405Z,74.81
2018-01-22T03:13:32.998Z,75.76
2018-01-22T03:13:33.597Z,75.09
2018-01-22T03:13:34.195Z,75.09
2018-01-22T03:13:34.837Z,75.76
2018-01-22T03:13:35.398Z,75.66
2018-01-22T03:13:35.994Z,75.00
2018-01-22T03:13:36.593Z,75.66
2018-01-22T03:13:37.193Z,75.66
2018-01-22T03:13:37.798Z,75.66
2018-01-22T03:13:38.394Z,75.28
2018-01-22T03:14:51.871Z,75.00
2018-01-22T03:14:52.432Z,75.38
2018-01-22T03:14:53.031Z,75.09
2018-01-22T03:14:53.634Z,75.38
2018-01-22T03:14:54.231Z,75.47
2018-01-22T03:14:54.835Z,75.38
2018-01-22T03:14:55.557Z,75.38
2018-01-22T03:14:56.045Z,75.19
2018-01-22T03:15:52.562Z,75.85
2018-01-22T03:15:53.154Z,76.04
2018-01-22T03:15:53.754Z,76.04
2018-01-22T03:18:02.047Z,76.80
2018-01-22T04:07:19.157Z,84.19
2018-01-22T04:07:19.666Z,84.09
2018-01-22T04:07:20.262Z,83.90
2018-01-22T04:07:20.862Z,84.09
2018-01-22T04:07:21.463Z,84.28
2018-01-22T04:07:22.061Z,84.28
2018-01-22T04:07:22.662Z,83.90
2018-01-22T04:07:23.260Z,84.00
2018-01-22T04:07:23.867Z,83.43
2018-01-22T04:07:24.472Z,83.14
2018-01-22T04:07:25.066Z,84.19
2018-01-22T04:07:25.661Z,83.14
2018-01-22T04:07:26.258Z,84.00
2018-01-22T04:07:26.858Z,83.62
2018-01-22T04:07:27.461Z,83.81
2018-01-22T04:07:28.058Z,83.71
2018-01-22T04:08:33.574Z,83.43
2018-01-22T04:08:34.168Z,83.62
2018-01-22T04:08:34.765Z,83.71
2018-01-22T04:08:35.366Z,83.52
2018-01-22T04:08:35.963Z,83.62
2018-01-22T04:08:36.569Z,83.62
2018-01-22T04:09:30.611Z,83.05
2018-01-22T04:09:31.232Z,82.95
2018-01-22T04:09:31.802Z,83.14
2018-01-22T04:09:32.402Z,82.86
2018-01-22T04:09:33.003Z,82.86
2018-01-22T04:09:33.605Z,83.05
2018-01-22T04:09:34.203Z,82.95
2018-01-22T04:09:34.802Z,82.86
2018-01-22T04:10:31.332Z,82.48
2018-01-22T04:10:31.929Z,82.48
2018-01-22T04:10:32.526Z,82.29
2018-01-22T04:11:26.012Z,82.48
2018-01-22T04:11:26.609Z,82.57
2018-01-22T04:11:27.209Z,82.57
2018-01-22T04:11:27.809Z,82.29
2018-01-22T04:11:28.407Z,82.57
2018-01-22T04:11:29.007Z,82.57
2018-01-22T04:11:29.622Z,82.57
2018-01-22T04:11:30.207Z,82.57
2018-01-22T04:12:25.251Z,82.39
2018-01-22T04:12:25.797Z,82.39
2018-01-22T04:12:26.396Z,82.20
2018-01-22T04:12:26.995Z,82.39
2018-01-22T04:12:27.597Z,82.29
2018-01-22T04:12:28.195Z,82.29
2018-01-22T04:12:28.796Z,82.29
2018-01-22T04:13:23.776Z,81.92
2018-01-22T04:13:24.371Z,82.01
2018-01-22T04:13:24.971Z,82.01
2018-01-22T04:13:25.569Z,81.92
2018-01-22T04:13:26.175Z,81.63
2018-01-22T04:13:26.802Z,81.92
2018-01-22T04:13:27.370Z,81.72
2018-01-22T04:14:20.840Z,81.72
2018-01-22T04:14:21.410Z,81.72
2018-01-22T04:14:22.011Z,81.72
2018-01-22T04:14:22.608Z,82.10
2018-01-22T04:14:23.212Z,81.92
2018-01-22T04:14:23.813Z,82.10
2018-01-22T04:14:24.406Z,82.10
2018-01-22T04:14:25.036Z,81.82
2018-01-22T04:16:46.622Z,81.06
2018-01-22T04:16:47.133Z,81.06
2018-01-22T04:16:47.731Z,81.15
2018-01-22T04:17:44.728Z,81.53
2018-01-22T04:17:45.290Z,81.63
2018-01-22T04:17:45.888Z,81.53
2018-01-22T04:19:20.439Z,82.10
2018-01-22T04:19:21.034Z,81.72
2018-01-22T04:19:21.634Z,81.72
2018-01-22T04:19:22.232Z,82.10
2018-01-22T04:19:22.834Z,82.10
2018-01-22T04:19:23.447Z,82.10
2018-01-22T04:20:22.904Z,81.92
2018-01-22T04:20:23.550Z,81.53
2018-01-22T04:20:24.098Z,82.20
2018-01-22T04:20:24.696Z,82.01
2018-01-22T04:20:25.296Z,81.92
2018-01-22T04:20:25.895Z,81.53
2018-01-22T04:20:26.496Z,81.72
2018-01-22T04:20:27.097Z,81.63
2018-01-22T04:20:27.696Z,81.53
2018-01-22T04:20:28.298Z,81.63
2018-01-22T04:20:28.894Z,82.20
2018-01-22T04:20:29.496Z,81.53
2018-01-22T04:20:30.098Z,81.63
2018-01-22T04:20:30.695Z,81.53
2018-01-22T04:20:31.296Z,81.53
2018-01-22T04:20:31.896Z,81.53
2018-01-22T05:07:03.495Z,77.80
2018-01-22T05:07:04.003Z,77.75
2018-01-22T05:07:04.603Z,77.99
2018-01-22T05:07:05.204Z,78.03
2018-01-22T05:07:05.807Z,77.70
2018-01-22T05:07:06.406Z,77.70
2018-01-22T05:07:07.001Z,77.70
2018-01-22T05:08:01.520Z,77.33
2018-01-22T05:08:02.117Z,76.95
2018-01-22T05:08:02.715Z,77.18
2018-01-22T05:08:03.315Z,76.95
2018-01-22T05:08:03.915Z,77.08
2018-01-22T05:08:04.514Z,77.04
2018-01-22T05:08:05.114Z,77.18
2018-01-22T05:08:05.714Z,76.80
2018-01-22T05:09:02.243Z,76.10
2018-01-22T05:09:02.841Z,76.10
2018-01-22T05:09:03.481Z,76.19
2018-01-22T05:09:57.950Z,74.87
2018-01-22T05:09:58.546Z,74.58
2018-01-22T05:09:59.146Z,74.40
2018-01-22T05:09:59.746Z,74.68
2018-01-22T05:10:00.347Z,74.68
2018-01-22T05:10:00.946Z,74.58
2018-01-22T05:10:01.546Z,74.58
2018-01-22T05:10:02.146Z,74.49
2018-01-22T05:10:56.627Z,73.83
2018-01-22T05:10:57.227Z,73.92
2018-01-22T05:10:57.822Z,74.11
2018-01-22T05:10:58.422Z,74.02
2018-01-22T05:10:59.022Z,74.11
2018-01-22T05:10:59.621Z,73.73
2018-01-22T05:11:00.220Z,74.30
2018-01-22T05:11:00.849Z,74.30
2018-01-22T05:11:56.331Z,72.69
2018-01-22T05:11:56.922Z,72.50
2018-01-22T05:11:57.520Z,72.69
2018-01-22T05:11:58.120Z,72.50
2018-01-22T05:11:58.721Z,72.78
2018-01-22T05:11:59.326Z,72.78
2018-01-22T05:11:59.921Z,72.78
2018-01-22T05:12:00.520Z,72.69
2018-01-22T05:12:56.588Z,72.12
2018-01-22T05:12:57.136Z,72.03
2018-01-22T05:12:57.735Z,72.31
2018-01-22T05:12:58.334Z,72.50
2018-01-22T05:12:58.989Z,72.12
2018-01-22T05:12:59.536Z,72.31
2018-01-22T05:13:54.497Z,71.36
2018-01-22T05:13:55.093Z,71.36
2018-01-22T05:13:55.691Z,71.46
2018-01-22T05:13:56.292Z,71.36
2018-01-22T05:13:56.901Z,71.08
2018-01-22T05:13:57.491Z,71.17
2018-01-22T05:13:58.091Z,71.17
2018-01-22T05:13:58.693Z,70.98
2018-01-22T05:15:00.647Z,70.89
2018-01-22T05:15:01.245Z,70.61
2018-01-22T05:15:01.883Z,70.61
2018-01-22T05:15:02.445Z,70.61
2018-01-22T05:15:03.048Z,70.79
2018-01-22T05:15:03.642Z,71.08
2018-01-22T05:15:04.244Z,70.61
2018-01-22T05:15:04.842Z,70.79
2018-01-22T05:15:05.442Z,70.70
2018-01-22T05:15:06.042Z,70.79
2018-01-22T05:15:06.642Z,70.70
2018-01-22T05:15:07.243Z,70.79
2018-01-22T05:16:00.762Z,70.23
2018-01-22T05:16:01.355Z,70.32
2018-01-22T05:16:01.955Z,70.32
2018-01-22T05:16:02.556Z,70.42
2018-01-22T05:16:03.172Z,70.32
2018-01-22T05:16:03.754Z,70.32
2018-01-22T05:16:04.353Z,70.32
2018-01-22T05:16:04.953Z,70.42
2018-01-22T05:16:59.955Z,70.04
2018-01-22T05:17:00.539Z,69.76
2018-01-22T05:17:01.139Z,69.79
2018-01-22T05:17:01.741Z,69.95
2018-01-22T05:17:02.340Z,69.95
2018-01-22T05:17:02.940Z,69.66
2018-01-22T05:17:03.539Z,69.85
2018-01-22T05:17:57.046Z,69.41
2018-01-22T05:17:57.588Z,69.76
2018-01-22T05:17:58.181Z,69.76
2018-01-22T05:17:58.779Z,69.85
2018-01-22T05:17:59.379Z,69.79
2018-01-22T05:18:00.027Z,69.79
2018-01-22T05:18:00.579Z,69.76
2018-01-22T05:18:01.178Z,69.47
2018-01-22T05:18:54.650Z,69.00
2018-01-22T05:18:55.248Z,68.90
2018-01-22T05:18:55.841Z,68.90
2018-01-22T05:18:56.433Z,68.90
2018-01-22T05:18:57.032Z,69.38
2018-01-22T05:18:57.631Z,69.38
2018-01-22T05:18:58.229Z,69.28
2018-01-22T05:18:58.831Z,68.90
2018-01-22T05:19:52.289Z,69.32
2018-01-22T05:19:52.883Z,69.47
2018-01-22T05:19:53.496Z,69.47
2018-01-22T05:19:54.086Z,69.47
2018-01-22T05:19:54.682Z,69.09
2018-01-22T05:19:55.326Z,69.28
2018-01-22T05:19:55.880Z,69.38
2018-01-22T05:19:56.480Z,69.09
2018-01-22T05:20:51.477Z,68.52
2018-01-22T05:20:52.076Z,68.62
2018-01-22T05:20:52.670Z,68.90
2018-01-22T05:20:53.272Z,68.90
2018-01-22T05:20:53.869Z,68.43
2018-01-22T05:20:54.472Z,68.65
2018-01-22T05:20:55.069Z,68.43
2018-01-22T05:21:50.046Z,68.43
2018-01-22T05:21:50.644Z,68.43
2018-01-22T05:21:51.245Z,68.65
2018-01-22T05:21:51.846Z,68.62
2018-01-22T05:21:52.443Z,68.56
2018-01-22T05:21:53.048Z,68.81
2018-01-22T05:21:53.645Z,68.43
2018-01-22T05:22:47.189Z,68.94
2018-01-22T05:22:47.788Z,69.19
2018-01-22T05:22:48.385Z,69.28
2018-01-22T05:22:48.988Z,69.03
2018-01-22T05:22:49.582Z,69.00
2018-01-22T05:22:50.182Z,69.32
2018-01-22T05:22:50.782Z,69.28
2018-01-22T05:22:51.417Z,69.28
2018-01-22T05:23:49.892Z,69.38
2018-01-22T05:23:50.454Z,69.32
2018-01-22T05:23:51.053Z,69.28
2018-01-22T05:23:51.656Z,69.03
2018-01-22T05:23:52.253Z,69.03
2018-01-22T05:23:52.853Z,69.03
2018-01-22T05:23:53.461Z,69.03
2018-01-22T05:23:54.052Z,69.00
2018-01-22T05:23:54.651Z,69.32
2018-01-22T05:23:55.251Z,69.03
2018-01-22T05:23:55.851Z,69.28
2018-01-22T05:23:56.453Z,69.32
2018-01-22T05:23:57.131Z,69.51
2018-01-22T05:23:57.650Z,69.32
2018-01-22T05:23:58.250Z,69.32
2018-01-22T05:23:58.850Z,69.03
2018-01-22T06:06:39.333Z,68.81
2018-01-22T06:06:39.896Z,68.71
2018-01-22T06:06:40.489Z,68.62
2018-01-22T06:06:41.090Z,68.62
2018-01-22T06:06:41.690Z,68.62
2018-01-22T06:06:42.293Z,68.71
2018-01-22T06:06:42.888Z,68.90
2018-01-22T06:06:43.489Z,68.62
2018-01-22T06:07:36.946Z,68.90
2018-01-22T06:07:37.543Z,68.62
2018-01-22T06:07:38.185Z,68.43
2018-01-22T06:07:38.740Z,68.43
2018-01-22T06:07:39.341Z,68.43
2018-01-22T06:07:39.939Z,68.43
2018-01-22T06:07:40.541Z,68.33
2018-01-22T06:07:41.144Z,68.43
2018-01-22T06:08:42.071Z,67.96
2018-01-22T06:08:42.669Z,67.86
2018-01-22T06:08:43.269Z,67.68
2018-01-22T06:08:43.868Z,67.86
2018-01-22T06:08:44.466Z,67.58
2018-01-22T06:08:45.067Z,67.86
2018-01-22T06:08:45.665Z,68.05
2018-01-22T06:08:46.266Z,68.05
2018-01-22T06:08:46.871Z,67.86
2018-01-22T06:08:47.465Z,67.86
2018-01-22T06:08:48.066Z,67.58
2018-01-22T06:08:48.666Z,67.58
2018-01-22T06:10:02.153Z,67.30
2018-01-22T06:10:02.749Z,67.49
2018-01-22T06:10:03.347Z,67.39
2018-01-22T06:10:03.952Z,67.68
2018-01-22T06:10:04.552Z,67.49
2018-01-22T06:10:05.149Z,67.49
2018-01-22T06:10:05.748Z,67.39
2018-01-22T06:10:06.346Z,67.49
2018-01-22T06:11:04.822Z,67.01
2018-01-22T06:11:05.451Z,66.92
2018-01-22T06:11:06.017Z,66.53
2018-01-22T06:11:06.617Z,67.01
2018-01-22T06:11:07.217Z,67.01
2018-01-22T06:11:07.815Z,67.05
2018-01-22T06:11:08.415Z,66.92
2018-01-22T06:11:09.015Z,67.05
2018-01-22T06:11:09.614Z,66.63
2018-01-22T06:11:10.215Z,66.92
2018-01-22T06:11:10.820Z,67.24
2018-01-22T06:11:11.414Z,66.82
2018-01-22T06:11:12.015Z,67.01
2018-01-22T06:11:12.613Z,67.20
2018-01-22T06:11:13.215Z,67.20
2018-01-22T06:11:13.813Z,67.11
2018-01-22T07:07:16.540Z,63.42
2018-01-22T07:07:17.052Z,63.35
2018-01-22T07:07:17.650Z,63.54
2018-01-22T07:07:18.248Z,63.32
2018-01-22T07:07:18.848Z,63.23
2018-01-22T07:07:19.446Z,63.60
2018-01-22T07:07:20.046Z,63.04
2018-01-22T07:07:20.646Z,63.32
2018-01-22T07:07:21.248Z,63.07
2018-01-22T07:07:21.846Z,63.23
2018-01-22T07:07:22.446Z,63.51
2018-01-22T07:08:16.478Z,62.28
2018-01-22T07:08:17.072Z,62.28
2018-01-22T07:08:17.677Z,62.37
2018-01-22T07:08:18.274Z,62.28
2018-01-22T07:08:18.872Z,62.09
2018-01-22T07:08:19.470Z,62.18
2018-01-22T07:08:20.068Z,61.90
2018-01-22T07:08:20.669Z,62.09
2018-01-22T07:09:40.240Z,61.90
2018-01-22T07:09:40.835Z,61.80
2018-01-22T07:09:41.434Z,61.80
2018-01-22T07:09:42.052Z,61.80
2018-01-22T07:09:42.634Z,61.80
2018-01-22T07:09:43.249Z,61.90
2018-01-22T07:09:43.832Z,61.18
2018-01-22T07:09:44.436Z,61.24
2018-01-22T07:09:45.035Z,61.43
2018-01-22T07:09:45.634Z,61.15
2018-01-22T07:09:46.232Z,61.24
2018-01-22T07:09:46.832Z,61.33
2018-01-22T07:09:47.432Z,61.15
2018-01-22T07:09:48.037Z,61.43
2018-01-22T07:09:48.632Z,61.52
2018-01-22T07:11:39.780Z,60.38
2018-01-22T07:11:40.338Z,60.38
2018-01-22T07:11:40.939Z,60.10
2018-01-22T07:11:41.539Z,60.58
2018-01-22T07:11:42.137Z,60.58
2018-01-22T07:11:42.740Z,60.48
2018-01-22T07:11:43.342Z,60.67
2018-01-22T07:11:43.937Z,60.67
2018-01-22T07:11:44.537Z,60.67
2018-01-22T07:11:45.137Z,60.10
2018-01-22T07:11:45.744Z,60.67
2018-01-22T07:11:46.336Z,60.77
2018-01-22T07:11:46.935Z,60.29
2018-01-22T07:12:44.459Z,59.72
2018-01-22T07:12:45.058Z,59.63
2018-01-22T07:12:45.658Z,59.63
2018-01-22T07:13:39.655Z,59.25
2018-01-22T07:13:40.254Z,59.25
2018-01-22T07:13:40.850Z,59.16
2018-01-22T07:13:41.451Z,59.16
2018-01-22T07:13:42.052Z,59.25
2018-01-22T07:13:42.648Z,59.06
2018-01-22T07:13:43.249Z,59.06
2018-01-22T07:15:55.542Z,58.68
2018-01-22T07:15:56.131Z,58.68
2018-01-22T07:15:56.733Z,58.87
2018-01-22T07:15:57.334Z,59.00
2018-01-22T07:15:57.929Z,58.78
2018-01-22T07:15:58.527Z,58.97
2018-01-22T07:15:59.132Z,58.68
2018-01-22T07:15:59.727Z,58.87
2018-01-22T07:16:00.326Z,58.68
2018-01-22T07:16:00.927Z,58.87
2018-01-22T07:16:01.528Z,58.78
2018-01-22T07:16:02.127Z,58.68
2018-01-22T07:17:36.237Z,58.40
2018-01-22T07:17:36.799Z,58.40
2018-01-22T07:17:37.397Z,58.24